Time;durP1;ratioP1;P1;durP2;ratioP2;P2;SDS_P1;SDS_P2;PMS_P1;PMS_P2;Temp;Humidity;BMP_temperature;BMP_pressure;BME280_temperature;BME280_humidity;BME280_pressure;Samples;Min_cycle;Max_cycle;Signal;HPM_P1;HPM_P2
2022/02/01 00:00:56;;;;;;;13.60;6.60;;;;;;;2.42;56.39;99640.65;117245;1182;23548;-63
2022/02/01 00:03:29;;;;;;;10.10;6.10;;;;;;;2.41;56.31;99639.23;117190;1185;23475;-54
2022/02/01 00:06:19;;;;;;;11.20;7.00;;;;;;;2.39;56.35;99639.73;117285;1178;21892;-54
2022/02/01 00:09:04;;;;;;;12.20;7.40;;;;;;;2.38;56.27;99637.31;117247;1183;21856;-62
2022/02/01 00:14:16;;;;;;;10.30;6.80;;;;;;;2.39;56.33;99630.39;117204;1184;23500;-63
2022/02/01 00:17:04;;;;;;;10.20;6.80;;;;;;;2.40;56.19;99631.61;117136;1186;22989;-63
2022/02/01 00:36:35;;;;;;;8.80;5.40;;;;;;;2.07;56.19;99640.98;117167;1186;24155;-63
2022/02/01 00:39:05;;;;;;;11.00;6.20;;;;;;;2.03;56.22;99646.48;117077;1186;23450;-54
2022/02/01 00:41:35;;;;;;;11.40;6.50;;;;;;;2.01;56.30;99649.58;117146;1183;22797;-64
2022/02/01 00:44:04;;;;;;;12.10;6.50;;;;;;;1.96;56.38;99652.13;117106;1186;21842;-53
2022/02/01 00:46:34;;;;;;;11.00;6.20;;;;;;;1.95;56.22;99650.55;117265;1186;21863;-62
2022/02/01 00:49:03;;;;;;;;;;;;;;;1.94;56.18;99651.05;117034;1178;21838;-52
2022/02/01 00:51:31;;;;;;;11.50;5.40;;;;;;;1.91;56.31;99648.44;117070;1182;21861;-52
2022/02/01 00:54:00;;;;;;;9.50;6.00;;;;;;;1.92;56.40;99650.18;117024;1185;22995;-52
2022/02/01 00:56:29;;;;;;;10.90;6.00;;;;;;;1.91;56.35;99646.18;117272;1181;23466;-54
2022/02/01 00:58:58;;;;;;;11.50;6.30;;;;;;;1.90;56.20;99648.09;117229;1182;23474;-53
2022/02/01 01:01:26;;;;;;;10.60;6.10;;;;;;;1.90;56.25;99657.42;117058;1188;21853;-63
2022/02/01 01:03:55;;;;;;;10.10;5.70;;;;;;;1.89;56.12;99664.50;117285;1186;23674;-62
2022/02/01 01:06:25;;;;;;;11.60;5.70;;;;;;;1.86;56.07;99661.00;117161;1184;21990;-54
2022/02/01 01:08:54;;;;;;;10.40;5.80;;;;;;;1.85;56.16;99650.42;117046;1185;22768;-63
2022/02/01 01:11:22;;;;;;;11.20;6.10;;;;;;;1.85;56.23;99642.31;117303;1185;23580;-61
2022/02/01 01:44:09;;;;;;;12.50;6.50;;;;;;;1.79;56.24;99651.05;117242;1184;21851;-51
2022/02/01 01:54:59;;;;;;;10.40;5.20;;;;;;;1.77;56.14;99646.70;117248;1184;23581;-62
2022/02/01 01:57:27;;;;;;;10.80;5.20;;;;;;;1.72;56.03;99651.16;117307;1185;22931;-52
2022/02/01 01:59:55;;;;;;;9.80;5.50;;;;;;;1.65;56.15;99647.95;117206;1181;21864;-56
2022/02/01 02:02:26;;;;;;;10.30;5.70;;;;;;;1.63;56.06;99650.70;117132;1187;21878;-61
2022/02/01 02:04:54;;;;;;;10.50;6.10;;;;;;;1.62;56.15;99658.63;117292;1180;21860;-52
2022/02/01 02:07:23;;;;;;;10.60;5.60;;;;;;;1.55;56.31;99660.63;117301;1183;22737;-60
2022/02/01 02:09:51;;;;;;;10.30;5.30;;;;;;;1.51;56.30;99660.75;117295;1176;21853;-52
2022/02/01 02:12:38;;;;;;;10.80;6.40;;;;;;;1.48;56.13;99668.33;117260;1185;23458;-52
2022/02/01 02:15:07;;;;;;;9.80;5.50;;;;;;;1.45;56.39;99673.65;117268;1184;23582;-53
2022/02/01 02:17:36;;;;;;;11.60;6.40;;;;;;;1.44;56.53;99670.17;117333;1186;21863;-52
2022/02/01 02:20:05;;;;;;;10.50;5.60;;;;;;;1.46;56.53;99672.45;117081;1184;22618;-52
2022/02/01 02:22:33;;;;;;;9.40;6.30;;;;;;;1.46;56.57;99676.08;117061;1187;21884;-52
2022/02/01 02:25:03;;;;;;;9.90;5.70;;;;;;;1.44;56.43;99672.77;117076;1185;24159;-62
2022/02/01 02:27:34;;;;;;;10.60;6.00;;;;;;;1.41;56.37;99665.80;117256;1184;23475;-52
2022/02/01 02:30:02;;;;;;;11.10;6.70;;;;;;;1.39;56.36;99669.41;117197;1185;22037;-52
2022/02/01 02:32:30;;;;;;;9.50;5.90;;;;;;;1.35;56.30;99675.06;117304;1182;21853;-61
2022/02/01 02:34:59;;;;;;;10.20;5.70;;;;;;;1.30;56.18;99679.67;117283;1182;21944;-62
2022/02/01 02:37:30;;;;;;;11.60;5.80;;;;;;;1.26;56.11;99681.85;117033;1187;22945;-55
2022/02/01 02:40:19;;;;;;;11.90;5.70;;;;;;;1.22;56.21;99685.25;117297;1184;22966;-53
2022/02/01 02:45:36;;;;;;;9.60;6.10;;;;;;;1.26;56.14;99693.61;117152;1185;21845;-51
2022/02/01 02:48:05;;;;;;;11.30;5.30;;;;;;;1.21;56.06;99701.14;117308;1183;23651;-53
2022/02/01 02:50:34;;;;;;;11.80;6.20;;;;;;;1.18;56.09;99700.91;117224;1186;23476;-62
2022/02/01 02:53:03;;;;;;;11.90;5.90;;;;;;;1.15;56.24;99703.80;117284;1181;21848;-61
2022/02/01 02:55:33;;;;;;;12.70;6.20;;;;;;;1.15;56.22;99703.46;117258;1186;22914;-62
2022/02/01 02:58:01;;;;;;;10.80;6.30;;;;;;;1.16;56.27;99702.95;117282;1176;21870;-62
2022/02/01 03:00:30;;;;;;;12.10;7.10;;;;;;;1.17;56.38;99694.50;117449;1185;24708;-52
2022/02/01 03:02:58;;;;;;;12.10;6.90;;;;;;;1.21;56.35;99696.13;117199;1181;21842;-62
2022/02/01 03:05:27;;;;;;;10.80;6.90;;;;;;;1.21;56.53;99697.33;117208;1184;23435;-52
2022/02/01 03:07:55;;;;;;;9.00;6.00;;;;;;;1.23;56.46;99702.88;117283;1183;24170;-62
2022/02/01 03:10:24;;;;;;;12.90;7.20;;;;;;;1.23;56.47;99704.27;117270;1180;24144;-52
2022/02/01 03:13:13;;;;;;;12.10;7.40;;;;;;;1.24;56.41;99707.73;117334;1185;23638;-51
2022/02/01 03:15:50;;;;;;;10.30;6.40;;;;;;;1.24;56.36;99708.10;117272;1183;21863;-61
2022/02/01 03:21:07;;;;;;;9.90;6.70;;;;;;;1.25;56.47;99697.40;117219;1186;23476;-52
2022/02/01 03:23:36;;;;;;;13.00;6.90;;;;;;;1.25;56.39;99697.06;117247;1186;24230;-51
2022/02/01 03:26:04;;;;;;;12.40;7.20;;;;;;;1.27;56.20;99690.86;117274;1184;24137;-61
2022/02/01 03:28:33;;;;;;;12.00;7.90;;;;;;;1.27;56.58;99692.58;117270;1182;23491;-51
2022/02/01 03:31:02;;;;;;;15.10;8.00;;;;;;;1.27;56.43;99698.11;117382;1183;23679;-57
2022/02/01 03:33:30;;;;;;;15.00;8.90;;;;;;;1.26;56.35;99704.85;117208;1181;23654;-62
2022/02/01 03:35:58;;;;;;;13.20;7.70;;;;;;;1.26;56.44;99712.62;117014;1185;22657;-52
2022/02/01 03:38:26;;;;;;;14.10;7.80;;;;;;;1.26;56.30;99715.91;117129;1184;22218;-62
2022/02/01 03:40:54;;;;;;;13.10;8.50;;;;;;;1.26;56.55;99722.65;117290;1185;21867;-52
2022/02/01 03:43:23;;;;;;;15.40;8.40;;;;;;;1.27;56.62;99717.66;117209;1184;23383;-61
2022/02/01 03:45:52;;;;;;;15.80;8.10;;;;;;;1.28;56.66;99713.00;117290;1186;21858;-52
2022/02/01 03:48:21;;;;;;;16.10;8.10;;;;;;;1.27;56.60;99715.41;117299;1181;23474;-52
2022/02/01 03:50:49;;;;;;;14.70;8.90;;;;;;;1.27;56.59;99719.38;117290;1183;24195;-61
2022/02/01 03:53:18;;;;;;;13.60;7.90;;;;;;;1.26;56.40;99722.30;117314;1182;21860;-52
2022/02/01 03:55:46;;;;;;;13.00;8.20;;;;;;;1.25;56.48;99719.19;117256;1186;23448;-59
2022/02/01 03:58:15;;;;;;;14.40;8.80;;;;;;;1.26;56.51;99720.75;117430;1181;21862;-62
2022/02/01 04:00:43;;;;;;;16.80;9.00;;;;;;;1.25;56.64;99717.96;117266;1183;22906;-52
2022/02/01 04:03:11;;;;;;;13.80;8.60;;;;;;;1.24;56.39;99716.56;117353;1176;22228;-51
2022/02/01 04:05:40;;;;;;;11.90;6.70;;;;;;;1.17;56.61;99718.88;117244;1182;22651;-52
2022/02/01 04:08:12;;;;;;;10.10;6.50;;;;;;;1.07;56.33;99718.39;117319;1182;23467;-62
2022/02/01 04:10:41;;;;;;;13.60;7.00;;;;;;;0.97;56.26;99715.45;117272;1182;22006;-52
2022/02/01 04:13:09;;;;;;;11.90;7.00;;;;;;;0.92;56.44;99714.86;117304;1185;22620;-51
2022/02/01 04:15:38;;;;;;;13.70;7.20;;;;;;;0.90;56.35;99714.82;117302;1183;23471;-52
2022/02/01 04:18:07;;;;;;;13.10;7.80;;;;;;;0.85;56.51;99714.59;117248;1181;24155;-61
2022/02/01 04:20:36;;;;;;;12.60;7.80;;;;;;;0.76;56.47;99718.05;117231;1182;23595;-62
2022/02/01 04:23:05;;;;;;;12.30;7.60;;;;;;;0.69;56.16;99720.17;117097;1184;23466;-62
2022/02/01 04:25:33;;;;;;;15.00;8.80;;;;;;;0.64;56.45;99726.14;117077;1184;21859;-61
2022/02/01 04:28:01;;;;;;;15.90;9.40;;;;;;;0.58;56.37;99730.20;117280;1178;23478;-50
2022/02/01 04:30:30;;;;;;;16.20;9.40;;;;;;;0.51;56.51;99728.66;117330;1184;23474;-51
2022/02/01 04:32:58;;;;;;;17.90;11.00;;;;;;;0.43;56.36;99725.09;117304;1186;21854;-62
2022/02/01 04:35:29;;;;;;;19.70;11.90;;;;;;;0.40;56.55;99722.95;117322;1185;23449;-62
2022/02/01 04:37:57;;;;;;;18.80;11.20;;;;;;;0.38;56.64;99728.45;117337;1186;23473;-60
2022/02/01 04:40:27;;;;;;;15.20;9.50;;;;;;;0.35;56.47;99728.73;117305;1182;23449;-52
2022/02/01 04:42:55;;;;;;;15.70;9.50;;;;;;;0.32;56.53;99728.33;117299;1185;21987;-62
2022/02/01 04:45:24;;;;;;;21.70;10.40;;;;;;;0.26;56.37;99729.59;117306;1182;21858;-51
2022/02/01 04:47:52;;;;;;;16.80;10.20;;;;;;;0.17;56.42;99726.33;117317;1181;21863;-61
2022/02/01 04:50:28;;;;;;;25.50;12.90;;;;;;;0.09;56.24;99728.23;117072;1183;22019;-62
2022/02/01 04:52:56;;;;;;;21.00;13.10;;;;;;;0.02;56.16;99733.09;117240;1185;22968;-51
2022/02/01 04:55:42;;;;;;;18.30;12.20;;;;;;;-0.03;56.15;99728.35;117317;1182;21844;-51
2022/02/01 04:58:11;;;;;;;20.90;11.90;;;;;;;-0.07;56.19;99724.48;117295;1185;21861;-52
2022/02/01 05:00:39;;;;;;;19.40;11.50;;;;;;;-0.09;56.24;99732.17;117345;1185;22526;-52
2022/02/01 05:03:07;;;;;;;16.80;10.40;;;;;;;-0.10;56.09;99736.83;117292;1186;23570;-63
2022/02/01 05:05:36;;;;;;;25.10;12.60;;;;;;;-0.09;56.54;99737.71;117286;1182;23453;-62
2022/02/01 05:08:08;;;;;;;30.60;15.10;;;;;;;-0.09;56.20;99742.02;117072;1184;23439;-51
2022/02/01 05:10:37;;;;;;;22.60;12.10;;;;;;;-0.09;56.21;99749.08;117273;1185;22619;-62
2022/02/01 05:16:05;;;;;;;29.80;15.30;;;;;;;-0.03;56.74;99749.23;117383;1183;23449;-63
2022/02/01 05:18:49;;;;;;;27.60;13.50;;;;;;;0.05;56.82;99746.61;117288;1185;21855;-65
2022/02/01 05:21:25;;;;;;;27.00;13.80;;;;;;;0.08;56.79;99742.36;117077;1186;21865;-64
2022/02/01 05:23:54;;;;;;;23.20;14.00;;;;;;;0.10;56.29;99744.83;117280;1181;23475;-66
2022/02/01 05:26:23;;;;;;;25.70;12.20;;;;;;;0.11;56.50;99756.58;117306;1185;21858;-50
2022/02/01 05:28:52;;;;;;;21.50;12.20;;;;;;;0.12;56.30;99759.69;117020;1186;23455;-66
2022/02/01 05:31:21;;;;;;;23.80;13.20;;;;;;;0.08;56.33;99759.60;117210;1184;21908;-69
2022/02/01 05:33:51;;;;;;;22.40;11.30;;;;;;;0.08;56.61;99758.23;117279;1181;21848;-49
2022/02/01 05:36:19;;;;;;;21.50;12.90;;;;;;;0.09;56.49;99757.91;117314;1181;23545;-68
2022/02/01 05:38:50;;;;;;;23.50;12.70;;;;;;;0.06;56.23;99764.74;117354;1185;23525;-68
2022/02/01 05:41:19;;;;;;;18.80;12.20;;;;;;;-0.01;56.43;99774.44;117321;1186;22949;-48
2022/02/01 05:43:47;;;;;;;23.20;13.10;;;;;;;-0.06;56.42;99779.35;117342;1185;24202;-67
2022/02/01 05:46:18;;;;;;;23.60;12.60;;;;;;;-0.06;56.22;99778.47;117262;1185;23554;-48
2022/02/01 05:48:46;;;;;;;23.20;11.90;;;;;;;-0.05;56.04;99775.39;117241;1185;21961;-48
2022/02/01 05:51:14;;;;;;;19.30;11.60;;;;;;;-0.04;56.54;99777.67;117319;1185;22715;-68
2022/02/01 05:53:43;;;;;;;20.10;11.60;;;;;;;-0.05;56.32;99775.06;117284;1183;21863;-68
2022/02/01 05:56:12;;;;;;;19.30;11.60;;;;;;;-0.08;56.26;99772.92;117331;1182;22535;-48
2022/02/01 05:58:40;;;;;;;18.80;11.00;;;;;;;-0.10;56.57;99768.56;117364;1182;22872;-68
2022/02/01 06:01:09;;;;;;;20.50;11.00;;;;;;;-0.11;56.40;99772.52;117412;1185;22093;-48
2022/02/01 06:03:37;;;;;;;19.30;11.60;;;;;;;-0.10;56.41;99784.94;117359;1186;22619;-48
2022/02/01 06:06:07;;;;;;;17.50;10.80;;;;;;;-0.08;56.49;99801.72;117312;1185;23455;-68
2022/02/01 06:08:37;;;;;;;21.00;11.60;;;;;;;-0.04;56.59;99825.27;117364;1183;21937;-48
2022/02/01 06:11:05;;;;;;;26.50;15.00;;;;;;;-0.05;56.64;99849.73;117302;1181;23548;-69
2022/02/01 06:13:36;;;;;;;30.70;17.00;;;;;;;-0.09;56.28;99849.30;117289;1186;21852;-48
2022/02/01 06:16:05;;;;;;;;;;;;;;;-0.04;56.94;99838.55;117350;1185;22680;-48
2022/02/01 06:18:33;;;;;;;31.70;16.10;;;;;;;0.06;56.77;99838.24;117360;1182;23822;-48
2022/02/01 06:21:02;;;;;;;27.60;15.90;;;;;;;0.19;57.05;99845.60;117363;1185;21858;-49
2022/02/01 06:23:31;;;;;;;29.50;18.50;;;;;;;0.34;57.26;99846.41;117354;1185;22793;-48
2022/02/01 06:25:59;;;;;;;34.10;19.50;;;;;;;0.42;57.19;99853.15;117243;1186;21894;-49
2022/02/01 06:28:28;;;;;;;39.10;20.50;;;;;;;0.53;56.91;99857.34;117358;1179;21873;-70
2022/02/01 06:30:57;;;;;;;33.20;19.80;;;;;;;0.65;56.86;99859.63;117267;1179;23037;-49
2022/02/01 06:33:26;;;;;;;37.40;21.70;;;;;;;0.77;57.12;99860.23;117286;1185;21857;-71
2022/02/01 06:35:54;;;;;;;33.30;20.40;;;;;;;0.90;56.83;99863.05;117298;1186;22645;-70
2022/02/01 06:38:23;;;;;;;35.20;21.80;;;;;;;1.02;57.06;99864.30;117419;1185;21855;-48
2022/02/01 06:40:52;;;;;;;39.90;22.80;;;;;;;1.14;57.08;99859.86;117282;1182;23695;-49
2022/02/01 06:43:21;;;;;;;36.60;22.20;;;;;;;1.27;57.01;99865.62;117080;1185;21862;-70
2022/02/01 06:45:50;;;;;;;32.70;21.00;;;;;;;1.37;57.31;99872.16;117298;1185;23692;-49
2022/02/01 06:48:18;;;;;;;41.00;22.50;;;;;;;1.48;57.30;99874.08;117071;1186;22927;-68
2022/02/01 06:50:47;;;;;;;35.90;22.50;;;;;;;1.60;57.20;99879.45;117250;1183;22000;-69
2022/02/01 06:53:18;;;;;;;41.10;23.10;;;;;;;1.73;57.28;99883.66;117366;1185;21875;-50
2022/02/01 06:55:59;;;;;;;39.60;21.90;;;;;;;1.85;57.25;99886.77;119398;1177;21805;-70
2022/02/01 06:58:27;;;;;;;35.70;20.80;;;;;;;2.00;57.32;99884.39;118524;1186;21859;-50
2022/02/01 07:00:55;;;;;;;29.50;19.60;;;;;;;2.13;57.32;99890.98;117311;1185;22971;-69
2022/02/01 07:03:24;;;;;;;29.00;19.60;;;;;;;2.24;57.49;99893.39;117336;1185;22053;-50
2022/02/01 07:05:54;;;;;;;28.00;17.70;;;;;;;2.36;57.43;99895.63;117327;1185;21855;-55
2022/02/01 07:08:25;;;;;;;24.80;15.90;;;;;;;2.48;57.46;99896.30;117328;1185;22931;-63
2022/02/01 07:10:58;;;;;;;23.90;15.90;;;;;;;2.59;57.49;99898.35;117239;1185;21857;-64
2022/02/01 07:13:27;;;;;;;31.90;15.20;;;;;;;2.67;57.54;99903.13;117395;1186;22794;-64
2022/02/01 07:15:55;;;;;;;29.70;18.60;;;;;;;2.77;57.39;99907.06;117353;1184;23648;-65
2022/02/01 07:18:24;;;;;;;30.60;17.30;;;;;;;2.88;57.55;99904.06;117278;1183;23475;-53
2022/02/01 07:20:52;;;;;;;26.70;16.50;;;;;;;3.04;57.86;99897.83;117266;1182;22644;-54
2022/02/01 07:23:23;;;;;;;27.30;16.00;;;;;;;3.22;57.74;99888.48;117282;1183;23453;-65
2022/02/01 07:25:53;;;;;;;26.80;15.60;;;;;;;3.38;57.81;99882.89;117018;1186;21847;-55
2022/02/01 07:28:23;;;;;;;25.70;15.50;;;;;;;3.54;57.94;99883.39;117310;1176;21916;-64
2022/02/01 07:30:51;;;;;;;27.60;15.80;;;;;;;3.67;57.66;99878.81;117298;1186;21880;-54
2022/02/01 07:33:19;;;;;;;28.80;16.60;;;;;;;3.82;57.89;99877.34;117203;1186;23592;-54
2022/02/01 07:35:49;;;;;;;34.80;18.50;;;;;;;3.97;57.85;99881.09;117304;1183;23238;-58
2022/02/01 07:38:21;;;;;;;46.30;21.10;;;;;;;4.10;57.86;99880.31;117027;1185;23453;-67
2022/02/01 07:40:51;;;;;;;36.90;18.90;;;;;;;4.20;57.97;99875.50;117192;1181;21897;-65
2022/02/01 07:43:20;;;;;;;43.90;21.90;;;;;;;4.30;57.83;99879.91;117329;1184;22625;-53
2022/02/01 07:45:49;;;;;;;36.50;19.50;;;;;;;4.34;57.78;99887.39;117221;1185;21858;-53
2022/02/01 07:48:18;;;;;;;41.40;19.10;;;;;;;4.38;57.65;99889.33;119354;1183;22164;-68
2022/02/01 07:50:46;;;;;;;53.60;29.70;;;;;;;4.43;57.69;99891.61;119400;1185;21814;-54
2022/02/01 07:53:14;;;;;;;50.40;28.00;;;;;;;4.49;57.66;99896.85;118682;1185;21893;-68
2022/02/01 07:55:42;;;;;;;41.80;24.80;;;;;;;4.52;57.68;99897.21;117209;1182;21848;-67
2022/02/01 07:58:11;;;;;;;35.90;21.30;;;;;;;4.55;57.76;99903.13;117223;1185;21861;-66
2022/02/01 08:00:39;;;;;;;35.20;19.50;;;;;;;4.60;57.71;99901.95;116986;1185;24152;-66
2022/02/01 08:03:09;;;;;;;32.80;18.70;;;;;;;4.67;57.74;99897.45;117305;1179;21852;-53
2022/02/01 08:05:39;;;;;;;29.60;18.30;;;;;;;4.74;57.78;99895.74;117284;1185;23551;-53
2022/02/01 08:08:07;;;;;;;28.90;17.40;;;;;;;4.83;57.83;99894.56;117175;1180;23504;-66
2022/02/01 08:10:43;;;;;;;25.90;13.70;;;;;;;4.87;57.71;99894.05;117419;1185;21873;-61
2022/02/01 08:21:53;;;;;;;18.40;12.40;;;;;;;5.28;57.50;99928.08;117132;1185;23449;-56
2022/02/01 08:24:21;;;;;;;19.30;11.80;;;;;;;5.34;57.90;99928.42;117279;1178;23695;-53
2022/02/01 08:26:50;;;;;;;16.10;10.70;;;;;;;5.43;57.81;99931.23;117290;1182;22579;-52
2022/02/01 08:29:18;;;;;;;21.50;11.60;;;;;;;5.57;57.97;99928.80;117335;1185;22159;-65
2022/02/01 08:31:48;;;;;;;18.90;11.60;;;;;;;5.70;58.14;99931.61;117396;1185;21913;-65
2022/02/01 08:34:18;;;;;;;27.00;11.80;;;;;;;5.75;57.94;99935.95;117084;1184;21945;-52
2022/02/01 08:36:47;;;;;;;24.10;12.30;;;;;;;5.79;58.09;99945.88;117247;1186;21873;-66
2022/02/01 08:39:16;;;;;;;20.70;13.20;;;;;;;5.83;57.67;99946.77;117292;1185;21858;-52
2022/02/01 08:41:44;;;;;;;24.20;14.60;;;;;;;5.88;57.92;99949.37;117372;1185;23582;-52
2022/02/01 08:44:15;;;;;;;24.30;14.80;;;;;;;6.01;57.95;99938.05;117330;1185;23525;-66
2022/02/01 08:46:44;;;;;;;17.40;11.00;;;;;;;6.12;57.97;99938.77;117353;1184;22511;-52
2022/02/01 08:49:12;;;;;;;18.00;10.90;;;;;;;6.29;58.31;99935.25;117420;1179;21855;-54
2022/02/01 08:51:43;;;;;;;17.00;10.80;;;;;;;6.46;58.35;99934.70;117277;1183;23474;-53
2022/02/01 08:54:18;;;;;;;19.30;11.60;;;;;;;6.54;58.10;99929.63;117099;1187;23016;-53
2022/02/01 08:59:34;;;;;;;15.80;9.90;;;;;;;6.69;58.01;99928.88;117261;1185;23454;-54
2022/02/01 09:02:03;;;;;;;17.50;11.20;;;;;;;6.82;58.64;99926.55;117445;1183;22926;-55
2022/02/01 09:04:31;;;;;;;16.50;11.20;;;;;;;7.02;58.73;99920.36;117337;1176;21872;-64
2022/02/01 09:07:04;;;;;;;17.40;10.90;;;;;;;7.26;58.81;99915.17;117303;1186;22945;-54
2022/02/01 09:09:34;;;;;;;19.70;11.20;;;;;;;7.48;58.86;99916.23;117291;1182;23747;-64
2022/02/01 09:12:03;;;;;;;15.90;10.70;;;;;;;7.62;58.57;99916.48;117202;1183;23474;-65
2022/02/01 09:14:33;;;;;;;19.50;10.20;;;;;;;7.71;58.59;99912.23;117042;1184;23019;-52
2022/02/01 09:17:03;;;;;;;16.40;9.50;;;;;;;7.82;58.48;99909.52;117258;1185;22949;-54
2022/02/01 09:19:31;;;;;;;;;;;;;;;7.97;58.68;99904.85;117237;1178;21901;-66
2022/02/01 09:22:01;;;;;;;16.90;8.50;;;;;;;8.12;58.66;99894.58;117181;1182;21861;-52
2022/02/01 09:24:30;;;;;;;16.20;9.60;;;;;;;8.27;58.81;99886.72;117012;1183;23478;-65
2022/02/01 09:26:59;;;;;;;14.00;8.60;;;;;;;8.41;58.73;99884.30;117182;1186;21860;-52
2022/02/01 09:29:28;;;;;;;13.40;8.30;;;;;;;8.55;58.76;99883.48;117103;1184;24060;-65
2022/02/01 09:31:56;;;;;;;12.10;8.10;;;;;;;8.66;58.63;99875.82;117304;1181;22623;-52
2022/02/01 09:34:25;;;;;;;13.40;8.10;;;;;;;8.75;58.55;99874.13;117062;1184;23553;-66
2022/02/01 09:36:54;;;;;;;13.60;8.20;;;;;;;8.86;58.60;99870.48;117134;1188;23696;-51
2022/02/01 09:39:23;;;;;;;16.10;8.80;;;;;;;8.96;58.64;99872.46;117198;1185;22882;-66
2022/02/01 09:41:51;;;;;;;11.80;8.90;;;;;;;9.06;58.67;99876.69;117137;1186;21871;-52
2022/02/01 09:44:20;;;;;;;12.40;8.10;;;;;;;9.18;58.64;99873.02;117237;1178;24188;-66
2022/02/01 09:46:50;;;;;;;12.30;7.90;;;;;;;9.29;58.59;99877.05;117247;1186;21866;-66
2022/02/01 09:49:25;;;;;;;13.40;8.10;;;;;;;9.37;58.55;99874.14;117357;1186;21869;-67
2022/02/01 09:51:57;;;;;;;16.50;8.40;;;;;;;9.41;58.45;99871.98;117196;1186;21847;-53
2022/02/01 09:54:27;;;;;;;12.00;8.00;;;;;;;9.39;58.31;99866.05;117098;1186;22456;-52
2022/02/01 09:56:57;;;;;;;14.70;8.00;;;;;;;9.38;58.38;99866.95;117156;1185;22927;-67
2022/02/01 09:59:31;;;;;;;12.60;7.40;;;;;;;9.40;58.37;99873.92;117268;1185;21881;-52
2022/02/01 10:02:08;;;;;;;13.80;8.00;;;;;;;9.45;58.39;99872.10;117305;1183;22332;-67
2022/02/01 10:04:38;;;;;;;12.40;8.30;;;;;;;9.56;58.37;99865.60;117218;1182;21858;-67
2022/02/01 10:07:14;;;;;;;12.50;7.80;;;;;;;9.62;58.42;99862.89;117293;1186;21855;-67
2022/02/01 10:09:55;;;;;;;14.00;8.40;;;;;;;9.71;58.57;99857.30;117197;1186;22162;-66
2022/02/01 10:12:26;;;;;;;;;;;;;;;9.82;58.58;99852.38;117216;1184;21857;-61
2022/02/01 10:15:00;;;;;;;15.70;8.50;;;;;;;9.94;58.49;99843.42;117079;1185;21862;-65
2022/02/01 10:17:45;;;;;;;12.40;8.40;;;;;;;10.07;58.79;99840.88;117055;1185;21849;-55
2022/02/01 10:20:15;;;;;;;11.90;7.50;;;;;;;10.23;58.77;99843.21;117212;1179;23459;-54
2022/02/01 10:22:44;;;;;;;13.40;8.00;;;;;;;10.36;58.88;99843.67;117205;1181;21853;-54
2022/02/01 10:25:24;;;;;;;13.30;8.00;;;;;;;10.47;58.67;99841.37;117057;1186;22833;-55
2022/02/01 10:27:57;;;;;;;15.80;8.00;;;;;;;10.57;58.63;99842.23;117086;1188;23570;-64
2022/02/01 10:30:48;;;;;;;12.80;8.30;;;;;;;10.66;58.66;99835.72;117222;1183;22015;-54
2022/02/01 10:33:55;;;;;;;12.60;8.10;;;;;;;10.74;58.44;99840.99;117221;1186;21933;-54
2022/02/01 10:36:39;;;;;;;11.10;7.30;;;;;;;10.82;58.62;99834.13;117262;1183;21859;-58
2022/02/01 10:39:21;;;;;;;12.20;8.00;;;;;;;10.88;58.47;99831.39;117228;1176;23563;-64
2022/02/01 10:42:23;;;;;;;12.70;7.40;;;;;;;10.91;58.33;99831.83;117228;1185;22578;-55
2022/02/01 10:44:54;;;;;;;15.10;8.00;;;;;;;10.95;58.26;99836.50;116933;1188;22037;-55
2022/02/01 10:47:35;;;;;;;23.00;8.50;;;;;;;10.93;58.26;99837.95;116846;1189;23454;-63
2022/02/01 10:50:06;;;;;;;14.40;7.70;;;;;;;10.94;58.07;99833.54;116855;1188;21858;-64
2022/02/01 10:52:42;;;;;;;12.00;7.50;;;;;;;10.93;58.10;99832.51;116707;1188;23587;-54
2022/02/01 10:55:11;;;;;;;14.70;8.50;;;;;;;10.90;57.92;99827.48;116826;1188;22796;-55
2022/02/01 10:57:40;;;;;;;14.10;8.00;;;;;;;10.90;58.08;99823.80;116887;1188;21872;-54
2022/02/01 11:00:11;;;;;;;13.60;7.40;;;;;;;10.91;58.21;99821.66;116896;1188;22625;-55
2022/02/01 11:02:42;;;;;;;;;;;;;;;10.97;58.22;99821.88;118916;1186;21791;-55
2022/02/01 11:05:18;;;;;;;13.40;7.70;;;;;;;11.03;58.23;99824.36;118993;1188;21823;-53
2022/02/01 11:08:04;;;;;;;14.10;7.80;;;;;;;11.11;58.18;99827.00;116959;1185;23487;-54
2022/02/01 11:10:32;;;;;;;15.60;8.20;;;;;;;11.15;58.27;99830.06;116960;1188;21897;-66
2022/02/01 11:13:06;;;;;;;13.70;8.30;;;;;;;11.21;58.20;99830.64;116866;1185;23499;-55
2022/02/01 11:15:35;;;;;;;14.10;7.90;;;;;;;11.27;58.23;99827.51;116938;1185;21874;-66
2022/02/01 11:18:10;;;;;;;14.80;8.50;;;;;;;11.37;58.25;99825.85;116794;1189;21878;-66
2022/02/01 11:20:38;;;;;;;13.50;7.20;;;;;;;11.51;58.26;99828.34;117090;1180;22902;-54
2022/02/01 11:23:10;;;;;;;12.30;7.30;;;;;;;11.62;58.32;99830.70;117359;1183;21845;-54
2022/02/01 11:25:45;;;;;;;12.80;7.20;;;;;;;11.72;58.31;99831.85;117360;1183;23457;-53
2022/02/01 11:29:00;;;;;;;14.60;7.70;;;;;;;11.82;58.18;99828.94;117117;1185;21845;-54
2022/02/01 11:31:30;;;;;;;14.60;7.70;;;;;;;11.87;58.11;99826.53;117275;1179;23448;-65
2022/02/01 11:33:58;;;;;;;12.50;7.20;;;;;;;11.90;58.07;99824.36;117315;1183;22968;-53
2022/02/01 11:36:27;;;;;;;12.40;7.30;;;;;;;11.93;58.01;99827.63;117243;1182;21843;-64
2022/02/01 11:38:58;;;;;;;11.90;7.10;;;;;;;11.97;58.10;99829.44;117283;1182;23474;-53
2022/02/01 11:41:37;;;;;;;13.40;7.40;;;;;;;12.01;58.02;99828.49;117316;1183;23487;-54
2022/02/01 11:44:33;;;;;;;14.20;8.00;;;;;;;12.02;57.93;99826.00;117328;1182;22838;-65
2022/02/01 11:47:08;;;;;;;11.90;7.50;;;;;;;12.02;57.93;99824.92;117355;1185;21855;-54
2022/02/01 11:49:49;;;;;;;14.40;7.90;;;;;;;12.03;57.83;99826.66;117316;1182;21858;-65
2022/02/01 11:52:17;;;;;;;16.20;9.20;;;;;;;12.05;57.92;99820.61;117287;1185;21855;-64
2022/02/01 11:54:47;;;;;;;13.90;9.00;;;;;;;12.09;57.96;99821.59;117302;1182;23449;-67
2022/02/01 11:57:25;;;;;;;18.40;9.30;;;;;;;12.08;57.75;99820.75;117412;1185;22621;-68
2022/02/01 12:00:15;;;;;;;21.90;8.30;;;;;;;12.00;57.70;99824.29;117436;1183;22924;-53
2022/02/01 12:02:49;;;;;;;16.30;7.80;;;;;;;12.02;57.93;99829.86;117237;1179;21899;-53
2022/02/01 12:05:26;;;;;;;14.80;7.60;;;;;;;12.08;57.90;99834.47;117301;1185;21857;-69
2022/02/01 12:08:04;;;;;;;13.30;7.70;;;;;;;12.05;57.62;99833.65;117352;1186;21865;-68
2022/02/01 12:11:02;;;;;;;13.30;7.50;;;;;;;11.96;57.71;99828.93;117087;1187;21962;-55
2022/02/01 12:13:31;;;;;;;12.70;7.10;;;;;;;11.91;57.63;99831.02;117305;1183;23680;-64
2022/02/01 12:16:00;;;;;;;12.10;7.00;;;;;;;11.90;57.59;99838.76;117292;1185;22084;-55
2022/02/01 12:18:30;;;;;;;;;;;;;;;11.89;57.49;99843.02;117299;1182;24153;-55
2022/02/01 12:21:25;;;;;;;12.00;6.80;;;;;;;11.88;57.61;99846.36;117277;1186;21858;-55
2022/02/01 12:23:55;;;;;;;17.50;7.50;;;;;;;11.85;57.58;99848.03;117228;1185;23484;-55
2022/02/01 12:26:23;;;;;;;11.80;7.00;;;;;;;11.85;57.66;99850.34;117244;1183;23567;-64
2022/02/01 12:28:54;;;;;;;9.70;6.40;;;;;;;11.91;57.78;99847.89;117327;1185;23577;-64
2022/02/01 12:31:26;;;;;;;11.50;6.70;;;;;;;11.96;57.75;99850.39;117283;1185;22880;-65
2022/02/01 12:33:57;;;;;;;12.00;7.30;;;;;;;11.96;57.64;99842.66;117395;1186;22944;-55
2022/02/01 12:36:36;;;;;;;15.10;8.00;;;;;;;11.96;57.68;99839.64;117252;1186;23474;-55
2022/02/01 12:39:32;;;;;;;12.00;7.40;;;;;;;12.00;57.77;99842.23;117216;1186;21924;-55
2022/02/01 12:42:04;;;;;;;12.20;7.30;;;;;;;12.06;57.65;99842.58;117278;1185;23462;-55
2022/02/01 12:47:07;;;;;;;11.30;6.40;;;;;;;11.88;57.31;99831.08;117245;1185;22941;-60
2022/02/01 12:49:40;;;;;;;16.50;7.40;;;;;;;11.90;57.73;99830.66;117189;1186;23475;-55
2022/02/01 12:52:27;;;;;;;;;;;;;;;12.02;57.76;99832.49;117227;1185;22926;-54
2022/02/01 12:55:06;;;;;;;9.70;5.90;;;;;;;12.09;57.83;99836.18;117338;1176;21857;-55
2022/02/01 12:57:53;;;;;;;14.60;7.50;;;;;;;12.09;57.70;99834.42;117291;1185;23544;-54
2022/02/01 13:00:24;;;;;;;12.10;6.50;;;;;;;12.07;57.42;99830.97;117276;1185;21840;-55
2022/02/01 13:02:55;;;;;;;14.60;8.70;;;;;;;12.02;57.38;99834.08;117238;1186;23626;-55